This is the latest recevied weather packets stored in our database for station/object PY4QS. If no packets are shown the sender has not sent any weather packets the latest 10 day(s).
| Time | Temp. | Humidity | Pressure | Rain* | Wind** | Luminosity | Snow |
|---|---|---|---|---|---|---|---|
| 1777956040 | 18.33° C | 75% | 1025.4 hPa | - | - | - | - |
| 1777954200 | 18.33° C | 75% | 1025.6 hPa | - | - | - | - |
| 1777951134 | 18.89° C | 74% | 1025.8 hPa | - | - | - | - |
| 1777946236 | 19.44° C | 73% | 1026 hPa | - | - | - | - |
| 1777941036 | 20° C | 74% | 1025.6 hPa | - | - | - | - |
| 1777940119 | 20° C | 74% | 1025.5 hPa | - | - | - | - |
| 1777939504 | 20° C | 74% | 1025.4 hPa | - | - | - | - |
| 1777933078 | 20° C | 77% | 1024.4 hPa | - | - | - | - |
| 1777930615 | 19.44° C | 78% | 1024 hPa | - | - | - | - |
| 1777930542 | 19.44° C | 79% | 1023.9 hPa | - | - | - | - |
| 1777930297 | 19.44° C | 78% | 1023.8 hPa | - | - | - | - |
| 1777929062 | 20° C | 74% | 1023.6 hPa | - | - | - | - |
| 1777928978 | 20° C | 75% | 1023.6 hPa | - | - | - | - |
| 1777928201 | 21.67° C | 69% | 1023.4 hPa | - | - | - | - |
| 1777926360 | 22.78° C | 62% | 1023.2 hPa | - | - | - | - |
| 1777924524 | 23.33° C | 56% | 1022.9 hPa | - | - | - | - |
| 1777923301 | 23.89° C | 55% | 1022.7 hPa | - | - | - | - |
| 1777919931 | 23.89° C | 54% | 1022.5 hPa | - | - | - | - |
| 1777918402 | 24.44° C | 53% | 1022.5 hPa | - | - | - | - |
| 1777914733 | 25° C | 51% | 1023 hPa | - | - | - | - |
| 1777914427 | 25° C | 51% | 1022.9 hPa | - | - | - | - |
| 1777914120 | 25° C | 51% | 1022.9 hPa | - | - | - | - |
| 1777910755 | 23.89° C | 53% | 1023.6 hPa | - | - | - | - |
| 1777910449 | 23.89° C | 53% | 1023.6 hPa | - | - | - | - |
| 1777910141 | 23.89° C | 52% | 1023.7 hPa | - | - | - | - |
* Rain since midnight (hover to see other rain measurements)
** Current wind speed in m/s (hover to see current wind gust speed)